sensor_id;sensor_type;location;lat;lon;timestamp;temperature;humidity
12872;DHT22;6504;53.766;9.626;2023-05-20T00:01:29;11.60;99.90
12872;DHT22;6504;53.766;9.626;2023-05-20T00:03:57;11.60;99.90
12872;DHT22;6504;53.766;9.626;2023-05-20T00:06:25;11.60;99.90
12872;DHT22;6504;53.766;9.626;2023-05-20T00:08:53;11.60;99.90
12872;DHT22;6504;53.766;9.626;2023-05-20T00:11:22;11.50;99.90
12872;DHT22;6504;53.766;9.626;2023-05-20T00:13:50;11.40;99.90
12872;DHT22;6504;53.766;9.626;2023-05-20T00:16:19;11.30;99.90
12872;DHT22;6504;53.766;9.626;2023-05-20T00:18:47;11.20;99.90
12872;DHT22;6504;53.766;9.626;2023-05-20T00:21:15;11.10;99.90
12872;DHT22;6504;53.766;9.626;2023-05-20T00:23:43;11.10;99.90
12872;DHT22;6504;53.766;9.626;2023-05-20T00:26:11;11.00;99.90
12872;DHT22;6504;53.766;9.626;2023-05-20T00:28:40;11.00;99.90
12872;DHT22;6504;53.766;9.626;2023-05-20T00:31:08;11.00;99.90
12872;DHT22;6504;53.766;9.626;2023-05-20T00:33:37;11.00;99.90
12872;DHT22;6504;53.766;9.626;2023-05-20T00:36:05;11.00;99.90
12872;DHT22;6504;53.766;9.626;2023-05-20T00:38:33;11.00;99.90
12872;DHT22;6504;53.766;9.626;2023-05-20T00:41:01;11.00;99.90
12872;DHT22;6504;53.766;9.626;2023-05-20T00:43:29;11.00;99.90
12872;DHT22;6504;53.766;9.626;2023-05-20T00:45:58;10.90;99.90
12872;DHT22;6504;53.766;9.626;2023-05-20T00:48:30;10.90;99.90
12872;DHT22;6504;53.766;9.626;2023-05-20T00:51:01;10.90;99.90
12872;DHT22;6504;53.766;9.626;2023-05-20T00:53:30;10.80;99.90
12872;DHT22;6504;53.766;9.626;2023-05-20T00:55:58;10.80;99.90
12872;DHT22;6504;53.766;9.626;2023-05-20T00:58:27;10.80;99.90
12872;DHT22;6504;53.766;9.626;2023-05-20T01:00:55;10.80;99.90
12872;DHT22;6504;53.766;9.626;2023-05-20T01:03:24;10.70;99.90
12872;DHT22;6504;53.766;9.626;2023-05-20T01:05:53;10.70;99.90
12872;DHT22;6504;53.766;9.626;2023-05-20T01:08:24;10.70;99.90
12872;DHT22;6504;53.766;9.626;2023-05-20T01:10:56;10.70;99.90
12872;DHT22;6504;53.766;9.626;2023-05-20T01:13:30;10.70;99.90
12872;DHT22;6504;53.766;9.626;2023-05-20T01:16:01;10.70;99.90
12872;DHT22;6504;53.766;9.626;2023-05-20T01:18:31;10.70;99.90
12872;DHT22;6504;53.766;9.626;2023-05-20T01:21:01;10.60;99.90
12872;DHT22;6504;53.766;9.626;2023-05-20T01:23:37;10.60;99.90
12872;DHT22;6504;53.766;9.626;2023-05-20T01:26:06;10.50;99.90
12872;DHT22;6504;53.766;9.626;2023-05-20T01:28:35;10.50;99.90
12872;DHT22;6504;53.766;9.626;2023-05-20T01:31:05;10.40;99.90
12872;DHT22;6504;53.766;9.626;2023-05-20T01:33:38;10.40;99.90
12872;DHT22;6504;53.766;9.626;2023-05-20T01:36:08;10.40;99.90
12872;DHT22;6504;53.766;9.626;2023-05-20T01:38:39;10.30;99.90
12872;DHT22;6504;53.766;9.626;2023-05-20T01:41:08;10.30;99.90
12872;DHT22;6504;53.766;9.626;2023-05-20T01:43:37;10.30;99.90
12872;DHT22;6504;53.766;9.626;2023-05-20T01:46:05;10.40;99.90
12872;DHT22;6504;53.766;9.626;2023-05-20T01:48:34;10.30;99.90
12872;DHT22;6504;53.766;9.626;2023-05-20T01:51:02;10.30;99.90
12872;DHT22;6504;53.766;9.626;2023-05-20T01:53:30;10.20;99.90
12872;DHT22;6504;53.766;9.626;2023-05-20T01:55:59;10.30;99.90
12872;DHT22;6504;53.766;9.626;2023-05-20T01:58:27;10.20;99.90
12872;DHT22;6504;53.766;9.626;2023-05-20T02:00:55;10.20;99.90
12872;DHT22;6504;53.766;9.626;2023-05-20T02:03:24;10.20;99.90
12872;DHT22;6504;53.766;9.626;2023-05-20T02:05:52;10.20;99.90
12872;DHT22;6504;53.766;9.626;2023-05-20T02:08:20;10.20;99.90
12872;DHT22;6504;53.766;9.626;2023-05-20T02:10:48;10.20;99.90
12872;DHT22;6504;53.766;9.626;2023-05-20T02:13:18;10.20;99.90
12872;DHT22;6504;53.766;9.626;2023-05-20T02:15:46;10.20;99.90
12872;DHT22;6504;53.766;9.626;2023-05-20T02:18:14;10.20;99.90
12872;DHT22;6504;53.766;9.626;2023-05-20T02:20:44;10.20;99.90
12872;DHT22;6504;53.766;9.626;2023-05-20T02:23:12;10.20;99.90
12872;DHT22;6504;53.766;9.626;2023-05-20T02:25:40;10.20;99.90
12872;DHT22;6504;53.766;9.626;2023-05-20T02:28:08;10.10;99.90
12872;DHT22;6504;53.766;9.626;2023-05-20T02:30:38;10.10;99.90
12872;DHT22;6504;53.766;9.626;2023-05-20T02:33:06;10.00;99.90
12872;DHT22;6504;53.766;9.626;2023-05-20T02:35:35;9.90;99.90
12872;DHT22;6504;53.766;9.626;2023-05-20T02:38:03;9.90;99.90
12872;DHT22;6504;53.766;9.626;2023-05-20T02:40:31;9.80;99.90
12872;DHT22;6504;53.766;9.626;2023-05-20T02:43:00;9.70;99.90
12872;DHT22;6504;53.766;9.626;2023-05-20T02:45:28;9.70;99.90
12872;DHT22;6504;53.766;9.626;2023-05-20T02:47:57;9.60;99.90
12872;DHT22;6504;53.766;9.626;2023-05-20T02:50:26;9.60;99.90
12872;DHT22;6504;53.766;9.626;2023-05-20T02:52:54;9.60;99.90
12872;DHT22;6504;53.766;9.626;2023-05-20T02:55:23;9.60;99.90
12872;DHT22;6504;53.766;9.626;2023-05-20T02:57:51;9.60;99.90
12872;DHT22;6504;53.766;9.626;2023-05-20T03:00:19;9.60;99.90
12872;DHT22;6504;53.766;9.626;2023-05-20T03:02:49;9.60;99.90
12872;DHT22;6504;53.766;9.626;2023-05-20T03:05:18;9.60;99.90
12872;DHT22;6504;53.766;9.626;2023-05-20T03:07:47;9.50;99.90
12872;DHT22;6504;53.766;9.626;2023-05-20T03:10:15;9.50;99.90
12872;DHT22;6504;53.766;9.626;2023-05-20T03:12:43;9.50;99.90
12872;DHT22;6504;53.766;9.626;2023-05-20T03:15:11;9.50;99.90
12872;DHT22;6504;53.766;9.626;2023-05-20T03:17:39;9.50;99.90
12872;DHT22;6504;53.766;9.626;2023-05-20T03:20:08;9.50;99.90
12872;DHT22;6504;53.766;9.626;2023-05-20T03:22:39;9.50;99.90
12872;DHT22;6504;53.766;9.626;2023-05-20T03:25:08;9.50;99.90
12872;DHT22;6504;53.766;9.626;2023-05-20T03:27:36;9.40;99.90
12872;DHT22;6504;53.766;9.626;2023-05-20T03:30:06;9.40;99.90
12872;DHT22;6504;53.766;9.626;2023-05-20T03:32:35;9.30;99.90
12872;DHT22;6504;53.766;9.626;2023-05-20T03:35:04;9.30;99.90
12872;DHT22;6504;53.766;9.626;2023-05-20T03:37:32;9.20;99.90
12872;DHT22;6504;53.766;9.626;2023-05-20T03:40:01;9.10;99.90
12872;DHT22;6504;53.766;9.626;2023-05-20T03:42:31;9.10;99.90
12872;DHT22;6504;53.766;9.626;2023-05-20T03:44:59;9.10;99.90
12872;DHT22;6504;53.766;9.626;2023-05-20T03:47:28;9.10;99.90
12872;DHT22;6504;53.766;9.626;2023-05-20T03:49:56;9.00;99.90
12872;DHT22;6504;53.766;9.626;2023-05-20T03:52:24;9.10;99.90
12872;DHT22;6504;53.766;9.626;2023-05-20T03:54:52;9.10;99.90
12872;DHT22;6504;53.766;9.626;2023-05-20T03:57:22;9.10;99.90
12872;DHT22;6504;53.766;9.626;2023-05-20T03:59:50;9.10;99.90
12872;DHT22;6504;53.766;9.626;2023-05-20T04:02:18;9.10;99.90
12872;DHT22;6504;53.766;9.626;2023-05-20T04:04:46;9.10;99.90
12872;DHT22;6504;53.766;9.626;2023-05-20T04:07:18;9.10;99.90
12872;DHT22;6504;53.766;9.626;2023-05-20T04:09:46;9.10;99.90
12872;DHT22;6504;53.766;9.626;2023-05-20T04:12:14;9.10;99.90
12872;DHT22;6504;53.766;9.626;2023-05-20T04:14:46;9.10;99.90
12872;DHT22;6504;53.766;9.626;2023-05-20T04:17:15;9.10;99.90
12872;DHT22;6504;53.766;9.626;2023-05-20T04:19:43;9.20;99.90
12872;DHT22;6504;53.766;9.626;2023-05-20T04:22:11;9.20;99.90
12872;DHT22;6504;53.766;9.626;2023-05-20T04:24:39;9.20;99.90
12872;DHT22;6504;53.766;9.626;2023-05-20T04:27:07;9.20;99.90
12872;DHT22;6504;53.766;9.626;2023-05-20T04:29:36;9.30;99.90
12872;DHT22;6504;53.766;9.626;2023-05-20T04:32:08;9.30;99.90
12872;DHT22;6504;53.766;9.626;2023-05-20T04:34:37;9.30;99.90
12872;DHT22;6504;53.766;9.626;2023-05-20T04:37:05;9.40;99.90
12872;DHT22;6504;53.766;9.626;2023-05-20T04:39:35;9.40;99.90
12872;DHT22;6504;53.766;9.626;2023-05-20T04:42:04;9.50;99.90
12872;DHT22;6504;53.766;9.626;2023-05-20T04:44:32;9.50;99.90
12872;DHT22;6504;53.766;9.626;2023-05-20T04:47:01;9.50;99.90
12872;DHT22;6504;53.766;9.626;2023-05-20T04:49:31;9.60;99.90
12872;DHT22;6504;53.766;9.626;2023-05-20T04:51:59;9.70;99.90
12872;DHT22;6504;53.766;9.626;2023-05-20T04:54:27;9.70;99.90
12872;DHT22;6504;53.766;9.626;2023-05-20T04:56:55;9.80;99.90
12872;DHT22;6504;53.766;9.626;2023-05-20T04:59:24;9.90;99.90
12872;DHT22;6504;53.766;9.626;2023-05-20T05:01:52;9.90;99.90
12872;DHT22;6504;53.766;9.626;2023-05-20T05:04:20;10.00;99.90
12872;DHT22;6504;53.766;9.626;2023-05-20T05:06:50;10.00;99.90
12872;DHT22;6504;53.766;9.626;2023-05-20T05:09:18;10.10;99.90
12872;DHT22;6504;53.766;9.626;2023-05-20T05:11:46;10.20;99.90
12872;DHT22;6504;53.766;9.626;2023-05-20T05:14:14;10.30;99.90
12872;DHT22;6504;53.766;9.626;2023-05-20T05:16:43;10.40;99.90
12872;DHT22;6504;53.766;9.626;2023-05-20T05:19:11;10.50;99.90
12872;DHT22;6504;53.766;9.626;2023-05-20T05:21:40;10.60;99.90
12872;DHT22;6504;53.766;9.626;2023-05-20T05:24:09;10.70;99.90
12872;DHT22;6504;53.766;9.626;2023-05-20T05:26:37;10.70;99.90
12872;DHT22;6504;53.766;9.626;2023-05-20T05:29:05;10.90;99.90
12872;DHT22;6504;53.766;9.626;2023-05-20T05:31:37;10.90;99.90
12872;DHT22;6504;53.766;9.626;2023-05-20T05:34:05;11.00;99.90
12872;DHT22;6504;53.766;9.626;2023-05-20T05:36:33;11.10;99.90
12872;DHT22;6504;53.766;9.626;2023-05-20T05:39:01;11.20;99.90
12872;DHT22;6504;53.766;9.626;2023-05-20T05:41:31;11.20;99.90
12872;DHT22;6504;53.766;9.626;2023-05-20T05:43:59;11.30;99.90
12872;DHT22;6504;53.766;9.626;2023-05-20T05:46:27;11.50;99.90
12872;DHT22;6504;53.766;9.626;2023-05-20T05:48:55;11.50;99.90
12872;DHT22;6504;53.766;9.626;2023-05-20T05:51:26;11.60;99.90
12872;DHT22;6504;53.766;9.626;2023-05-20T05:53:54;11.70;99.90
12872;DHT22;6504;53.766;9.626;2023-05-20T05:56:23;11.90;99.90
12872;DHT22;6504;53.766;9.626;2023-05-20T05:58:52;12.00;99.90
12872;DHT22;6504;53.766;9.626;2023-05-20T06:01:20;12.10;99.90
12872;DHT22;6504;53.766;9.626;2023-05-20T06:03:48;12.20;99.90
12872;DHT22;6504;53.766;9.626;2023-05-20T06:06:17;12.20;99.90
12872;DHT22;6504;53.766;9.626;2023-05-20T06:08:45;12.30;99.90
12872;DHT22;6504;53.766;9.626;2023-05-20T06:11:13;12.40;99.90
12872;DHT22;6504;53.766;9.626;2023-05-20T06:13:41;12.50;99.90
12872;DHT22;6504;53.766;9.626;2023-05-20T06:16:10;12.60;99.90
12872;DHT22;6504;53.766;9.626;2023-05-20T06:18:38;12.70;99.90
12872;DHT22;6504;53.766;9.626;2023-05-20T06:21:07;12.80;99.90
12872;DHT22;6504;53.766;9.626;2023-05-20T06:23:35;12.80;99.90
12872;DHT22;6504;53.766;9.626;2023-05-20T06:26:03;12.90;99.90
12872;DHT22;6504;53.766;9.626;2023-05-20T06:28:31;13.00;99.90
12872;DHT22;6504;53.766;9.626;2023-05-20T06:31:00;13.20;99.90
12872;DHT22;6504;53.766;9.626;2023-05-20T06:33:29;13.30;99.90
12872;DHT22;6504;53.766;9.626;2023-05-20T06:35:58;13.40;99.90
12872;DHT22;6504;53.766;9.626;2023-05-20T06:38:29;13.50;99.90
12872;DHT22;6504;53.766;9.626;2023-05-20T06:40:57;13.50;99.90
12872;DHT22;6504;53.766;9.626;2023-05-20T06:43:26;13.50;99.90
12872;DHT22;6504;53.766;9.626;2023-05-20T06:45:54;13.60;99.90
12872;DHT22;6504;53.766;9.626;2023-05-20T06:48:22;13.70;99.90
12872;DHT22;6504;53.766;9.626;2023-05-20T06:50:55;13.70;99.90
12872;DHT22;6504;53.766;9.626;2023-05-20T06:53:24;13.80;99.90
12872;DHT22;6504;53.766;9.626;2023-05-20T06:55:52;13.80;99.90
12872;DHT22;6504;53.766;9.626;2023-05-20T06:58:22;13.90;99.90
12872;DHT22;6504;53.766;9.626;2023-05-20T07:00:51;14.00;99.90
12872;DHT22;6504;53.766;9.626;2023-05-20T07:03:19;14.10;99.90
12872;DHT22;6504;53.766;9.626;2023-05-20T07:05:47;14.10;99.90
12872;DHT22;6504;53.766;9.626;2023-05-20T07:08:17;14.20;99.90
12872;DHT22;6504;53.766;9.626;2023-05-20T07:10:45;14.20;99.90
12872;DHT22;6504;53.766;9.626;2023-05-20T07:13:14;14.20;99.90
12872;DHT22;6504;53.766;9.626;2023-05-20T07:15:45;14.20;99.90
12872;DHT22;6504;53.766;9.626;2023-05-20T07:18:13;14.30;99.90
12872;DHT22;6504;53.766;9.626;2023-05-20T07:20:42;14.40;99.90
12872;DHT22;6504;53.766;9.626;2023-05-20T07:23:10;14.50;99.90
12872;DHT22;6504;53.766;9.626;2023-05-20T07:25:42;14.60;99.90
12872;DHT22;6504;53.766;9.626;2023-05-20T07:28:10;14.70;99.90
12872;DHT22;6504;53.766;9.626;2023-05-20T07:30:39;14.70;99.90
12872;DHT22;6504;53.766;9.626;2023-05-20T07:33:07;14.80;99.90
12872;DHT22;6504;53.766;9.626;2023-05-20T07:35:35;14.90;99.90
12872;DHT22;6504;53.766;9.626;2023-05-20T07:38:03;15.00;99.90
12872;DHT22;6504;53.766;9.626;2023-05-20T07:40:31;15.00;99.90
12872;DHT22;6504;53.766;9.626;2023-05-20T07:43:01;15.10;99.90
12872;DHT22;6504;53.766;9.626;2023-05-20T07:45:29;15.20;99.90
12872;DHT22;6504;53.766;9.626;2023-05-20T07:47:57;15.20;99.90
12872;DHT22;6504;53.766;9.626;2023-05-20T07:50:26;15.30;99.90
12872;DHT22;6504;53.766;9.626;2023-05-20T07:52:55;15.40;99.90
12872;DHT22;6504;53.766;9.626;2023-05-20T07:55:23;15.40;99.90
12872;DHT22;6504;53.766;9.626;2023-05-20T07:57:51;15.50;99.90
12872;DHT22;6504;53.766;9.626;2023-05-20T08:00:21;15.60;99.90
12872;DHT22;6504;53.766;9.626;2023-05-20T08:02:49;15.70;99.90
12872;DHT22;6504;53.766;9.626;2023-05-20T08:05:18;15.80;99.90
12872;DHT22;6504;53.766;9.626;2023-05-20T08:07:46;16.00;99.90
12872;DHT22;6504;53.766;9.626;2023-05-20T08:10:14;16.00;99.90
12872;DHT22;6504;53.766;9.626;2023-05-20T08:12:42;16.10;99.90
12872;DHT22;6504;53.766;9.626;2023-05-20T08:15:10;16.10;99.90
12872;DHT22;6504;53.766;9.626;2023-05-20T08:17:40;16.20;99.90
12872;DHT22;6504;53.766;9.626;2023-05-20T08:20:09;16.30;99.90
12872;DHT22;6504;53.766;9.626;2023-05-20T08:22:38;16.40;99.90
12872;DHT22;6504;53.766;9.626;2023-05-20T08:25:07;16.50;99.90
12872;DHT22;6504;53.766;9.626;2023-05-20T08:27:36;16.50;99.90
12872;DHT22;6504;53.766;9.626;2023-05-20T08:30:06;16.60;99.90
12872;DHT22;6504;53.766;9.626;2023-05-20T08:32:35;16.70;99.90
12872;DHT22;6504;53.766;9.626;2023-05-20T08:35:06;16.70;99.90
12872;DHT22;6504;53.766;9.626;2023-05-20T08:37:34;16.80;99.90
12872;DHT22;6504;53.766;9.626;2023-05-20T08:40:02;16.90;99.90
12872;DHT22;6504;53.766;9.626;2023-05-20T08:42:33;16.90;99.90
12872;DHT22;6504;53.766;9.626;2023-05-20T08:45:02;16.70;99.90
12872;DHT22;6504;53.766;9.626;2023-05-20T08:47:31;16.70;99.90
12872;DHT22;6504;53.766;9.626;2023-05-20T08:49:59;16.80;99.90
12872;DHT22;6504;53.766;9.626;2023-05-20T08:52:30;16.80;99.90
12872;DHT22;6504;53.766;9.626;2023-05-20T08:55:01;16.80;99.90
12872;DHT22;6504;53.766;9.626;2023-05-20T08:57:31;16.90;99.90
12872;DHT22;6504;53.766;9.626;2023-05-20T08:59:59;16.80;99.90
12872;DHT22;6504;53.766;9.626;2023-05-20T09:02:27;17.00;99.90
12872;DHT22;6504;53.766;9.626;2023-05-20T09:04:56;17.10;99.90
12872;DHT22;6504;53.766;9.626;2023-05-20T09:07:28;17.20;99.90
12872;DHT22;6504;53.766;9.626;2023-05-20T09:09:56;17.10;99.90
12872;DHT22;6504;53.766;9.626;2023-05-20T09:12:25;17.10;99.90
12872;DHT22;6504;53.766;9.626;2023-05-20T09:14:53;17.10;99.90
12872;DHT22;6504;53.766;9.626;2023-05-20T09:17:22;17.10;99.90
12872;DHT22;6504;53.766;9.626;2023-05-20T09:19:51;17.20;99.90
12872;DHT22;6504;53.766;9.626;2023-05-20T09:22:23;17.30;99.90
12872;DHT22;6504;53.766;9.626;2023-05-20T09:24:53;17.30;99.90
12872;DHT22;6504;53.766;9.626;2023-05-20T09:27:21;17.30;99.90
12872;DHT22;6504;53.766;9.626;2023-05-20T09:29:50;17.30;99.90
12872;DHT22;6504;53.766;9.626;2023-05-20T09:32:20;17.30;99.90
12872;DHT22;6504;53.766;9.626;2023-05-20T09:34:50;17.40;99.90
12872;DHT22;6504;53.766;9.626;2023-05-20T09:37:18;17.50;99.90
12872;DHT22;6504;53.766;9.626;2023-05-20T09:39:56;17.70;99.90
12872;DHT22;6504;53.766;9.626;2023-05-20T09:42:27;17.80;99.90
12872;DHT22;6504;53.766;9.626;2023-05-20T09:44:57;17.90;99.90
12872;DHT22;6504;53.766;9.626;2023-05-20T09:47:26;17.80;99.90
12872;DHT22;6504;53.766;9.626;2023-05-20T09:49:55;17.80;99.90
12872;DHT22;6504;53.766;9.626;2023-05-20T09:52:25;17.80;99.90
12872;DHT22;6504;53.766;9.626;2023-05-20T09:54:56;17.80;99.90
12872;DHT22;6504;53.766;9.626;2023-05-20T09:57:24;17.90;99.90
12872;DHT22;6504;53.766;9.626;2023-05-20T09:59:52;18.00;99.90
12872;DHT22;6504;53.766;9.626;2023-05-20T10:02:20;17.90;99.90
12872;DHT22;6504;53.766;9.626;2023-05-20T10:04:50;18.00;99.90
12872;DHT22;6504;53.766;9.626;2023-05-20T10:07:55;17.90;99.90
12872;DHT22;6504;53.766;9.626;2023-05-20T10:10:36;17.80;99.90
12872;DHT22;6504;53.766;9.626;2023-05-20T10:13:14;17.60;99.90
12872;DHT22;6504;53.766;9.626;2023-05-20T10:15:53;17.60;99.90
12872;DHT22;6504;53.766;9.626;2023-05-20T10:18:33;17.60;99.90
12872;DHT22;6504;53.766;9.626;2023-05-20T10:21:14;17.50;99.90
12872;DHT22;6504;53.766;9.626;2023-05-20T10:23:42;17.70;99.90
12872;DHT22;6504;53.766;9.626;2023-05-20T10:26:12;17.70;99.90
12872;DHT22;6504;53.766;9.626;2023-05-20T10:28:40;17.60;99.90
12872;DHT22;6504;53.766;9.626;2023-05-20T10:31:15;17.70;99.90
12872;DHT22;6504;53.766;9.626;2023-05-20T10:33:44;17.70;99.90
12872;DHT22;6504;53.766;9.626;2023-05-20T10:36:23;17.70;99.90
12872;DHT22;6504;53.766;9.626;2023-05-20T10:38:53;17.50;99.90
12872;DHT22;6504;53.766;9.626;2023-05-20T10:41:24;17.50;99.90
12872;DHT22;6504;53.766;9.626;2023-05-20T10:44:00;17.60;99.90
12872;DHT22;6504;53.766;9.626;2023-05-20T10:46:29;17.60;99.90
12872;DHT22;6504;53.766;9.626;2023-05-20T10:49:17;17.60;99.90
12872;DHT22;6504;53.766;9.626;2023-05-20T10:51:51;17.40;99.90
12872;DHT22;6504;53.766;9.626;2023-05-20T10:54:21;17.40;99.90
12872;DHT22;6504;53.766;9.626;2023-05-20T10:56:53;17.20;99.90
12872;DHT22;6504;53.766;9.626;2023-05-20T10:59:22;17.20;99.90
12872;DHT22;6504;53.766;9.626;2023-05-20T11:01:51;17.10;99.90
12872;DHT22;6504;53.766;9.626;2023-05-20T11:04:20;17.10;99.90
12872;DHT22;6504;53.766;9.626;2023-05-20T11:06:51;17.00;99.90
12872;DHT22;6504;53.766;9.626;2023-05-20T11:09:21;17.10;99.90
12872;DHT22;6504;53.766;9.626;2023-05-20T11:11:50;17.00;99.90
12872;DHT22;6504;53.766;9.626;2023-05-20T11:14:20;17.00;99.90
12872;DHT22;6504;53.766;9.626;2023-05-20T11:16:51;17.00;99.90
12872;DHT22;6504;53.766;9.626;2023-05-20T11:19:20;17.00;99.90
12872;DHT22;6504;53.766;9.626;2023-05-20T11:21:48;17.00;99.90
12872;DHT22;6504;53.766;9.626;2023-05-20T11:24:23;16.90;99.90
12872;DHT22;6504;53.766;9.626;2023-05-20T11:26:52;16.90;99.90
12872;DHT22;6504;53.766;9.626;2023-05-20T11:29:22;16.90;99.90
12872;DHT22;6504;53.766;9.626;2023-05-20T11:31:51;16.90;99.90
12872;DHT22;6504;53.766;9.626;2023-05-20T11:34:19;17.00;99.90
12872;DHT22;6504;53.766;9.626;2023-05-20T11:36:55;17.00;99.90
12872;DHT22;6504;53.766;9.626;2023-05-20T11:39:24;17.00;99.90
12872;DHT22;6504;53.766;9.626;2023-05-20T11:41:53;17.00;99.90
12872;DHT22;6504;53.766;9.626;2023-05-20T11:44:24;16.90;99.90
12872;DHT22;6504;53.766;9.626;2023-05-20T11:46:58;16.90;99.90
12872;DHT22;6504;53.766;9.626;2023-05-20T11:49:27;16.90;99.90
12872;DHT22;6504;53.766;9.626;2023-05-20T11:51:56;16.90;99.90
12872;DHT22;6504;53.766;9.626;2023-05-20T11:54:24;16.90;99.90
12872;DHT22;6504;53.766;9.626;2023-05-20T11:56:53;17.00;99.90
12872;DHT22;6504;53.766;9.626;2023-05-20T11:59:24;17.00;99.90
12872;DHT22;6504;53.766;9.626;2023-05-20T12:01:52;17.00;99.90
12872;DHT22;6504;53.766;9.626;2023-05-20T12:04:20;17.00;99.90
12872;DHT22;6504;53.766;9.626;2023-05-20T12:06:49;17.00;99.90
12872;DHT22;6504;53.766;9.626;2023-05-20T12:09:18;17.00;99.90
12872;DHT22;6504;53.766;9.626;2023-05-20T12:11:46;17.00;99.90
12872;DHT22;6504;53.766;9.626;2023-05-20T12:14:15;17.00;99.90
12872;DHT22;6504;53.766;9.626;2023-05-20T12:16:44;17.00;99.90
12872;DHT22;6504;53.766;9.626;2023-05-20T12:19:12;16.90;99.90
12872;DHT22;6504;53.766;9.626;2023-05-20T12:21:40;17.00;99.90
12872;DHT22;6504;53.766;9.626;2023-05-20T12:24:08;17.00;99.90
12872;DHT22;6504;53.766;9.626;2023-05-20T12:26:36;17.00;99.90
12872;DHT22;6504;53.766;9.626;2023-05-20T12:29:05;17.00;99.90
12872;DHT22;6504;53.766;9.626;2023-05-20T12:31:33;16.90;99.90
12872;DHT22;6504;53.766;9.626;2023-05-20T12:34:03;17.00;99.90
12872;DHT22;6504;53.766;9.626;2023-05-20T12:36:31;16.90;99.90
12872;DHT22;6504;53.766;9.626;2023-05-20T12:38:59;16.90;99.90
12872;DHT22;6504;53.766;9.626;2023-05-20T12:41:27;16.80;99.90
12872;DHT22;6504;53.766;9.626;2023-05-20T12:43:55;16.70;99.90
12872;DHT22;6504;53.766;9.626;2023-05-20T12:46:23;16.70;99.90
12872;DHT22;6504;53.766;9.626;2023-05-20T12:48:51;16.70;99.90
12872;DHT22;6504;53.766;9.626;2023-05-20T12:51:21;16.70;99.90
12872;DHT22;6504;53.766;9.626;2023-05-20T12:53:49;16.70;99.90
12872;DHT22;6504;53.766;9.626;2023-05-20T12:56:17;16.80;99.90
12872;DHT22;6504;53.766;9.626;2023-05-20T12:58:45;16.80;99.90
12872;DHT22;6504;53.766;9.626;2023-05-20T13:01:13;16.80;99.90
12872;DHT22;6504;53.766;9.626;2023-05-20T13:03:42;16.80;99.90
12872;DHT22;6504;53.766;9.626;2023-05-20T13:06:10;16.70;99.90
12872;DHT22;6504;53.766;9.626;2023-05-20T13:08:39;16.80;99.90
12872;DHT22;6504;53.766;9.626;2023-05-20T13:11:07;16.80;99.90
12872;DHT22;6504;53.766;9.626;2023-05-20T13:13:35;16.80;99.90
12872;DHT22;6504;53.766;9.626;2023-05-20T13:16:04;16.80;99.90
12872;DHT22;6504;53.766;9.626;2023-05-20T13:18:32;16.80;99.90
12872;DHT22;6504;53.766;9.626;2023-05-20T13:21:00;16.70;99.90
12872;DHT22;6504;53.766;9.626;2023-05-20T13:23:28;16.60;99.90
12872;DHT22;6504;53.766;9.626;2023-05-20T13:25:57;16.60;99.90
12872;DHT22;6504;53.766;9.626;2023-05-20T13:28:26;16.50;99.90
12872;DHT22;6504;53.766;9.626;2023-05-20T13:30:54;16.50;99.90
12872;DHT22;6504;53.766;9.626;2023-05-20T13:33:22;16.50;99.90
12872;DHT22;6504;53.766;9.626;2023-05-20T13:35:50;16.60;99.90
12872;DHT22;6504;53.766;9.626;2023-05-20T13:38:18;16.60;99.90
12872;DHT22;6504;53.766;9.626;2023-05-20T13:40:46;16.60;99.90
12872;DHT22;6504;53.766;9.626;2023-05-20T13:43:16;16.60;99.90
12872;DHT22;6504;53.766;9.626;2023-05-20T13:45:44;16.60;99.90
12872;DHT22;6504;53.766;9.626;2023-05-20T13:48:12;16.70;99.90
12872;DHT22;6504;53.766;9.626;2023-05-20T13:50:41;16.60;99.90
12872;DHT22;6504;53.766;9.626;2023-05-20T13:53:09;16.60;99.90
12872;DHT22;6504;53.766;9.626;2023-05-20T13:55:39;16.60;99.90
12872;DHT22;6504;53.766;9.626;2023-05-20T13:58:08;16.60;99.90
12872;DHT22;6504;53.766;9.626;2023-05-20T14:00:37;16.60;99.90
12872;DHT22;6504;53.766;9.626;2023-05-20T14:03:05;16.60;99.90
12872;DHT22;6504;53.766;9.626;2023-05-20T14:05:35;16.60;99.90
12872;DHT22;6504;53.766;9.626;2023-05-20T14:08:03;16.60;99.90
12872;DHT22;6504;53.766;9.626;2023-05-20T14:10:31;16.60;99.90
12872;DHT22;6504;53.766;9.626;2023-05-20T14:12:59;16.60;99.90
12872;DHT22;6504;53.766;9.626;2023-05-20T14:15:27;16.70;99.90
12872;DHT22;6504;53.766;9.626;2023-05-20T14:17:57;16.70;99.90
12872;DHT22;6504;53.766;9.626;2023-05-20T14:20:25;16.70;99.90
12872;DHT22;6504;53.766;9.626;2023-05-20T14:22:54;16.80;99.90
12872;DHT22;6504;53.766;9.626;2023-05-20T14:25:22;16.80;99.90
12872;DHT22;6504;53.766;9.626;2023-05-20T14:27:50;16.80;99.90
12872;DHT22;6504;53.766;9.626;2023-05-20T14:30:18;16.70;99.90
12872;DHT22;6504;53.766;9.626;2023-05-20T14:32:46;16.60;99.90
12872;DHT22;6504;53.766;9.626;2023-05-20T14:35:16;16.40;99.90
12872;DHT22;6504;53.766;9.626;2023-05-20T14:37:44;16.40;99.90
12872;DHT22;6504;53.766;9.626;2023-05-20T14:40:13;16.50;99.90
12872;DHT22;6504;53.766;9.626;2023-05-20T14:42:41;16.50;99.90
12872;DHT22;6504;53.766;9.626;2023-05-20T14:45:09;16.60;99.90
12872;DHT22;6504;53.766;9.626;2023-05-20T14:47:37;16.60;99.90
12872;DHT22;6504;53.766;9.626;2023-05-20T14:50:07;16.60;99.90
12872;DHT22;6504;53.766;9.626;2023-05-20T14:52:36;16.60;99.90
12872;DHT22;6504;53.766;9.626;2023-05-20T14:55:04;16.50;99.90
12872;DHT22;6504;53.766;9.626;2023-05-20T14:57:34;16.50;99.90
12872;DHT22;6504;53.766;9.626;2023-05-20T15:00:02;16.50;99.90
12872;DHT22;6504;53.766;9.626;2023-05-20T15:02:31;16.60;99.90
12872;DHT22;6504;53.766;9.626;2023-05-20T15:04:59;16.50;99.90
12872;DHT22;6504;53.766;9.626;2023-05-20T15:07:27;16.50;99.90
12872;DHT22;6504;53.766;9.626;2023-05-20T15:09:57;16.50;99.90
12872;DHT22;6504;53.766;9.626;2023-05-20T15:12:25;16.50;99.90
12872;DHT22;6504;53.766;9.626;2023-05-20T15:14:53;16.60;99.90
12872;DHT22;6504;53.766;9.626;2023-05-20T15:17:21;16.60;99.90
12872;DHT22;6504;53.766;9.626;2023-05-20T15:19:49;16.60;99.90
12872;DHT22;6504;53.766;9.626;2023-05-20T15:22:17;16.70;99.90
12872;DHT22;6504;53.766;9.626;2023-05-20T15:24:45;16.60;99.90
12872;DHT22;6504;53.766;9.626;2023-05-20T15:27:15;16.60;99.90
12872;DHT22;6504;53.766;9.626;2023-05-20T15:29:43;16.60;99.90
12872;DHT22;6504;53.766;9.626;2023-05-20T15:32:11;16.60;99.90
12872;DHT22;6504;53.766;9.626;2023-05-20T15:34:39;16.60;99.90
12872;DHT22;6504;53.766;9.626;2023-05-20T15:37:07;16.60;99.90
12872;DHT22;6504;53.766;9.626;2023-05-20T15:39:36;16.50;99.90
12872;DHT22;6504;53.766;9.626;2023-05-20T15:42:05;16.50;99.90
12872;DHT22;6504;53.766;9.626;2023-05-20T15:44:34;16.50;99.90
12872;DHT22;6504;53.766;9.626;2023-05-20T15:47:03;16.50;99.90
12872;DHT22;6504;53.766;9.626;2023-05-20T15:49:31;16.50;99.90
12872;DHT22;6504;53.766;9.626;2023-05-20T15:52:00;16.50;99.90
12872;DHT22;6504;53.766;9.626;2023-05-20T15:54:30;16.40;99.90
12872;DHT22;6504;53.766;9.626;2023-05-20T15:56:58;16.30;99.90
12872;DHT22;6504;53.766;9.626;2023-05-20T15:59:26;16.30;99.90